sensor_id;sensor_type;location;lat;lon;timestamp;pressure;altitude;pressure_sealevel;temperature;humidity
71194;BME280;58903;47.210;8.618;2023-05-10T00:01:56;93841.16;;;27.26;42.65
71194;BME280;58903;47.210;8.618;2023-05-10T00:04:34;93840.94;;;27.24;42.66
71194;BME280;58903;47.210;8.618;2023-05-10T00:07:21;93840.41;;;27.26;42.74
71194;BME280;58903;47.210;8.618;2023-05-10T00:09:49;93836.69;;;27.23;42.80
71194;BME280;58903;47.210;8.618;2023-05-10T00:12:25;93847.94;;;27.25;42.75
71194;BME280;58903;47.210;8.618;2023-05-10T00:14:58;93838.19;;;27.24;42.54
71194;BME280;58903;47.210;8.618;2023-05-10T00:17:26;93831.72;;;27.22;42.66
71194;BME280;58903;47.210;8.618;2023-05-10T00:19:52;93837.25;;;27.22;42.73
71194;BME280;58903;47.210;8.618;2023-05-10T00:22:20;93844.97;;;27.23;42.86
71194;BME280;58903;47.210;8.618;2023-05-10T00:24:58;93845.72;;;27.24;42.88
71194;BME280;58903;47.210;8.618;2023-05-10T00:27:25;93848.47;;;27.24;42.50
71194;BME280;58903;47.210;8.618;2023-05-10T00:30:01;93851.78;;;27.22;43.00
71194;BME280;58903;47.210;8.618;2023-05-10T00:32:52;93848.47;;;27.24;42.74
71194;BME280;58903;47.210;8.618;2023-05-10T00:35:19;93840.75;;;27.22;42.73
71194;BME280;58903;47.210;8.618;2023-05-10T00:37:48;93834.47;;;27.22;42.79
71194;BME280;58903;47.210;8.618;2023-05-10T00:40:45;93842.22;;;27.23;42.58
71194;BME280;58903;47.210;8.618;2023-05-10T00:43:23;93829.50;;;27.20;42.76
71194;BME280;58903;47.210;8.618;2023-05-10T00:45:55;93825.44;;;27.21;42.47
71194;BME280;58903;47.210;8.618;2023-05-10T00:48:40;93841.06;;;27.19;42.63
71194;BME280;58903;47.210;8.618;2023-05-10T00:51:22;93840.34;;;27.18;42.74
71194;BME280;58903;47.210;8.618;2023-05-10T00:53:54;93841.59;;;27.17;43.00
71194;BME280;58903;47.210;8.618;2023-05-10T00:56:21;93840.84;;;27.17;42.63
71194;BME280;58903;47.210;8.618;2023-05-10T00:58:55;93843.63;;;27.17;42.79
71194;BME280;58903;47.210;8.618;2023-05-10T01:01:33;93849.13;;;27.17;43.46
71194;BME280;58903;47.210;8.618;2023-05-10T01:04:20;93842.16;;;27.16;43.40
71194;BME280;58903;47.210;8.618;2023-05-10T01:07:08;93850.72;;;27.12;42.71
71194;BME280;58903;47.210;8.618;2023-05-10T01:09:35;93851.28;;;27.11;43.03
71194;BME280;58903;47.210;8.618;2023-05-10T01:12:02;93853.81;;;27.09;43.02
71194;BME280;58903;47.210;8.618;2023-05-10T01:14:40;93849.81;;;27.10;42.68
71194;BME280;58903;47.210;8.618;2023-05-10T01:17:09;93855.53;;;27.12;42.95
71194;BME280;58903;47.210;8.618;2023-05-10T01:19:39;93862.31;;;27.11;43.46
71194;BME280;58903;47.210;8.618;2023-05-10T01:43:28;93850.84;;;27.07;42.97
71194;BME280;58903;47.210;8.618;2023-05-10T01:46:27;93855.63;;;27.06;43.03
71194;BME280;58903;47.210;8.618;2023-05-10T01:49:24;93858.19;;;27.04;42.89
71194;BME280;58903;47.210;8.618;2023-05-10T01:52:17;93857.22;;;27.02;42.90
71194;BME280;58903;47.210;8.618;2023-05-10T01:55:11;93865.00;;;27.03;42.96
71194;BME280;58903;47.210;8.618;2023-05-10T01:57:58;93864.25;;;27.03;43.41
71194;BME280;58903;47.210;8.618;2023-05-10T02:03:45;93862.97;;;27.04;43.08
71194;BME280;58903;47.210;8.618;2023-05-10T02:06:14;93858.72;;;27.03;43.27
71194;BME280;58903;47.210;8.618;2023-05-10T02:08:54;93866.25;;;27.02;42.95
71194;BME280;58903;47.210;8.618;2023-05-10T02:11:37;93860.53;;;27.00;42.91
71194;BME280;58903;47.210;8.618;2023-05-10T02:14:16;93855.00;;;27.00;42.75
71194;BME280;58903;47.210;8.618;2023-05-10T02:16:43;93854.25;;;27.00;43.11
71194;BME280;58903;47.210;8.618;2023-05-10T02:19:13;93858.53;;;27.01;43.03
71194;BME280;58903;47.210;8.618;2023-05-10T02:21:41;93857.03;;;27.00;42.82
71194;BME280;58903;47.210;8.618;2023-05-10T02:24:18;93852.25;;;27.00;43.16
71194;BME280;58903;47.210;8.618;2023-05-10T02:26:51;93861.78;;;26.99;42.88
71194;BME280;58903;47.210;8.618;2023-05-10T02:29:20;93865.84;;;26.98;43.05
71194;BME280;58903;47.210;8.618;2023-05-10T02:32:00;93857.34;;;26.96;42.68
71194;BME280;58903;47.210;8.618;2023-05-10T02:34:30;93848.31;;;26.96;43.41
71194;BME280;58903;47.210;8.618;2023-05-10T02:36:59;93849.06;;;26.96;43.28
71194;BME280;58903;47.210;8.618;2023-05-10T02:39:31;93847.78;;;26.97;42.61
71194;BME280;58903;47.210;8.618;2023-05-10T02:42:16;93842.25;;;26.97;43.07
71194;BME280;58903;47.210;8.618;2023-05-10T02:44:47;93853.84;;;26.96;42.99
71194;BME280;58903;47.210;8.618;2023-05-10T02:47:14;93858.81;;;26.97;42.93
71194;BME280;58903;47.210;8.618;2023-05-10T02:49:41;93856.94;;;26.92;43.11
71194;BME280;58903;47.210;8.618;2023-05-10T02:52:10;93849.16;;;26.90;42.92
71194;BME280;58903;47.210;8.618;2023-05-10T02:54:55;93849.50;;;26.87;43.59
71194;BME280;58903;47.210;8.618;2023-05-10T02:57:41;93845.78;;;26.84;43.31
71194;BME280;58903;47.210;8.618;2023-05-10T03:00:09;93850.56;;;26.84;42.92
71194;BME280;58903;47.210;8.618;2023-05-10T03:02:41;93850.88;;;26.80;43.30
71194;BME280;58903;47.210;8.618;2023-05-10T03:05:11;93858.13;;;26.83;43.28
71194;BME280;58903;47.210;8.618;2023-05-10T03:07:38;93860.13;;;26.83;42.91
71194;BME280;58903;47.210;8.618;2023-05-10T03:10:05;93856.63;;;26.82;43.39
71194;BME280;58903;47.210;8.618;2023-05-10T03:18:17;93869.44;;;26.80;43.21
71194;BME280;58903;47.210;8.618;2023-05-10T03:21:02;93863.41;;;26.81;42.83
71194;BME280;58903;47.210;8.618;2023-05-10T03:23:41;93859.72;;;26.79;42.94
71194;BME280;58903;47.210;8.618;2023-05-10T03:26:30;93865.22;;;26.79;43.04
71194;BME280;58903;47.210;8.618;2023-05-10T03:29:02;93863.94;;;26.80;42.81
71194;BME280;58903;47.210;8.618;2023-05-10T03:34:52;93862.97;;;26.77;43.26
71194;BME280;58903;47.210;8.618;2023-05-10T03:37:23;93866.47;;;26.78;43.08
71194;BME280;58903;47.210;8.618;2023-05-10T03:39:51;93855.44;;;26.78;43.06
71194;BME280;58903;47.210;8.618;2023-05-10T03:42:24;93859.50;;;26.77;43.37
71194;BME280;58903;47.210;8.618;2023-05-10T03:44:50;93849.50;;;26.74;43.14
71194;BME280;58903;47.210;8.618;2023-05-10T03:47:15;93861.50;;;26.76;42.94
71194;BME280;58903;47.210;8.618;2023-05-10T03:49:41;93867.03;;;26.76;43.28
71194;BME280;58903;47.210;8.618;2023-05-10T03:52:09;93866.28;;;26.76;43.15
71194;BME280;58903;47.210;8.618;2023-05-10T03:54:38;93859.28;;;26.75;43.35
71194;BME280;58903;47.210;8.618;2023-05-10T03:57:08;93860.00;;;26.75;43.08
71194;BME280;58903;47.210;8.618;2023-05-10T03:59:36;93859.28;;;26.75;43.13
71194;BME280;58903;47.210;8.618;2023-05-10T04:02:06;93859.28;;;26.75;42.72
71194;BME280;58903;47.210;8.618;2023-05-10T04:04:32;93866.28;;;26.76;43.67
71194;BME280;58903;47.210;8.618;2023-05-10T04:07:00;93863.31;;;26.74;43.06
71194;BME280;58903;47.210;8.618;2023-05-10T04:09:26;93873.59;;;26.73;43.25
71194;BME280;58903;47.210;8.618;2023-05-10T04:11:52;93870.13;;;26.73;43.33
71194;BME280;58903;47.210;8.618;2023-05-10T04:14:18;93873.16;;;26.69;43.23
71194;BME280;58903;47.210;8.618;2023-05-10T04:16:44;93878.88;;;26.71;43.20
71194;BME280;58903;47.210;8.618;2023-05-10T04:19:10;93876.88;;;26.72;43.38
71194;BME280;58903;47.210;8.618;2023-05-10T04:21:36;93873.91;;;26.70;43.37
71194;BME280;58903;47.210;8.618;2023-05-10T04:24:04;93879.63;;;26.72;43.54
71194;BME280;58903;47.210;8.618;2023-05-10T04:26:30;93874.09;;;26.72;43.31
71194;BME280;58903;47.210;8.618;2023-05-10T04:28:57;93878.38;;;26.73;43.08
71194;BME280;58903;47.210;8.618;2023-05-10T04:31:26;93873.34;;;26.71;42.89
71194;BME280;58903;47.210;8.618;2023-05-10T04:33:53;93880.88;;;26.71;43.08
71194;BME280;58903;47.210;8.618;2023-05-10T04:36:19;93868.38;;;26.70;43.32
71194;BME280;58903;47.210;8.618;2023-05-10T04:38:45;93883.44;;;26.69;43.39
71194;BME280;58903;47.210;8.618;2023-05-10T04:41:12;93899.97;;;26.69;43.19
71194;BME280;58903;47.210;8.618;2023-05-10T04:43:40;93891.50;;;26.67;42.93
71194;BME280;58903;47.210;8.618;2023-05-10T04:46:09;93915.06;;;26.68;43.17
71194;BME280;58903;47.210;8.618;2023-05-10T04:48:36;93910.81;;;26.67;43.04
71194;BME280;58903;47.210;8.618;2023-05-10T04:51:04;93913.34;;;26.65;43.26
71194;BME280;58903;47.210;8.618;2023-05-10T04:53:33;93914.09;;;26.65;43.43
71194;BME280;58903;47.210;8.618;2023-05-10T04:56:03;93914.31;;;26.67;43.39
71194;BME280;58903;47.210;8.618;2023-05-10T04:59:05;93912.31;;;26.68;43.29
71194;BME280;58903;47.210;8.618;2023-05-10T05:01:44;93920.59;;;26.68;43.41
71194;BME280;58903;47.210;8.618;2023-05-10T05:04:40;93922.81;;;26.69;43.00
71194;BME280;58903;47.210;8.618;2023-05-10T05:07:15;93934.59;;;26.70;43.96
71194;BME280;58903;47.210;8.618;2023-05-10T05:09:49;93928.84;;;26.68;43.56
71194;BME280;58903;47.210;8.618;2023-05-10T05:16:06;93932.56;;;26.70;43.40
71194;BME280;58903;47.210;8.618;2023-05-10T05:18:58;93936.59;;;26.69;43.27
71194;BME280;58903;47.210;8.618;2023-05-10T05:21:33;93918.34;;;26.66;43.64
71194;BME280;58903;47.210;8.618;2023-05-10T05:27:11;93937.66;;;26.66;43.19
71194;BME280;58903;47.210;8.618;2023-05-10T05:29:39;93934.25;;;26.60;43.46
71194;BME280;58903;47.210;8.618;2023-05-10T05:32:07;93931.91;;;26.64;43.80
71194;BME280;58903;47.210;8.618;2023-05-10T05:38:04;93936.16;;;26.65;43.42
71194;BME280;58903;47.210;8.618;2023-05-10T05:43:59;93944.97;;;26.64;43.38
71194;BME280;58903;47.210;8.618;2023-05-10T05:46:27;93939.75;;;26.60;43.45
71194;BME280;58903;47.210;8.618;2023-05-10T05:49:23;93949.22;;;26.65;43.45
71194;BME280;58903;47.210;8.618;2023-05-10T05:52:00;93958.03;;;26.63;43.42
71194;BME280;58903;47.210;8.618;2023-05-10T05:54:50;93962.78;;;26.63;43.66
71194;BME280;58903;47.210;8.618;2023-05-10T05:57:16;93955.81;;;26.62;43.21
71194;BME280;58903;47.210;8.618;2023-05-10T05:59:55;93958.78;;;26.64;43.55
71194;BME280;58903;47.210;8.618;2023-05-10T06:02:23;93963.53;;;26.63;43.58
71194;BME280;58903;47.210;8.618;2023-05-10T06:05:02;93958.78;;;26.64;43.67
71194;BME280;58903;47.210;8.618;2023-05-10T06:11:07;93960.03;;;26.63;43.28
71194;BME280;58903;47.210;8.618;2023-05-10T06:14:02;93965.34;;;26.61;43.17
71194;BME280;58903;47.210;8.618;2023-05-10T06:16:38;93963.88;;;26.60;43.79
71194;BME280;58903;47.210;8.618;2023-05-10T06:19:38;93963.13;;;26.59;43.58
71194;BME280;58903;47.210;8.618;2023-05-10T06:22:05;93968.94;;;26.56;43.90
71194;BME280;58903;47.210;8.618;2023-05-10T06:24:47;93976.97;;;26.54;43.44
71194;BME280;58903;47.210;8.618;2023-05-10T06:27:46;93972.75;;;26.53;43.43
71194;BME280;58903;47.210;8.618;2023-05-10T06:30:50;93976.34;;;26.48;43.48
71194;BME280;58903;47.210;8.618;2023-05-10T06:33:17;93973.38;;;26.46;43.87
71194;BME280;58903;47.210;8.618;2023-05-10T06:35:43;93974.34;;;26.48;43.92
71194;BME280;58903;47.210;8.618;2023-05-10T06:38:10;93977.31;;;26.50;43.45
71194;BME280;58903;47.210;8.618;2023-05-10T06:40:45;93978.34;;;26.47;43.88
71194;BME280;58903;47.210;8.618;2023-05-10T06:43:23;93981.84;;;26.48;43.76
71194;BME280;58903;47.210;8.618;2023-05-10T06:45:52;93978.34;;;26.47;43.88
71194;BME280;58903;47.210;8.618;2023-05-10T06:48:45;93985.38;;;26.48;43.99
71194;BME280;58903;47.210;8.618;2023-05-10T06:51:15;93992.34;;;26.49;43.87
71194;BME280;58903;47.210;8.618;2023-05-10T06:54:21;93990.13;;;26.48;43.17
71194;BME280;58903;47.210;8.618;2023-05-10T06:57:01;93987.91;;;26.46;43.70
71194;BME280;58903;47.210;8.618;2023-05-10T06:59:28;93993.94;;;26.45;43.67
71194;BME280;58903;47.210;8.618;2023-05-10T07:02:03;93984.19;;;26.44;43.41
71194;BME280;58903;47.210;8.618;2023-05-10T07:04:39;93990.44;;;26.44;43.15
71194;BME280;58903;47.210;8.618;2023-05-10T07:07:05;93995.97;;;26.44;43.49
71194;BME280;58903;47.210;8.618;2023-05-10T07:09:33;93987.16;;;26.46;43.37
71194;BME280;58903;47.210;8.618;2023-05-10T07:12:06;93987.16;;;26.46;43.47
71194;BME280;58903;47.210;8.618;2023-05-10T07:14:47;93985.66;;;26.45;44.06
71194;BME280;58903;47.210;8.618;2023-05-10T07:17:33;93988.41;;;26.45;43.83
71194;BME280;58903;47.210;8.618;2023-05-10T07:20:20;93997.97;;;26.44;43.60
71194;BME280;58903;47.210;8.618;2023-05-10T07:22:52;93998.19;;;26.46;43.48
71194;BME280;58903;47.210;8.618;2023-05-10T07:25:21;93997.44;;;26.45;43.43
71194;BME280;58903;47.210;8.618;2023-05-10T07:27:47;93999.22;;;26.43;43.73
71194;BME280;58903;47.210;8.618;2023-05-10T07:30:14;93998.72;;;26.44;43.22
71194;BME280;58903;47.210;8.618;2023-05-10T07:32:40;93997.44;;;26.45;43.22
71194;BME280;58903;47.210;8.618;2023-05-10T07:35:08;93996.69;;;26.45;43.01
71194;BME280;58903;47.210;8.618;2023-05-10T07:37:56;93999.44;;;26.45;43.38
71194;BME280;58903;47.210;8.618;2023-05-10T07:40:29;93994.47;;;26.43;43.71
71194;BME280;58903;47.210;8.618;2023-05-10T07:42:57;94002.72;;;26.43;43.99
71194;BME280;58903;47.210;8.618;2023-05-10T07:45:24;94010.47;;;26.45;43.24
71194;BME280;58903;47.210;8.618;2023-05-10T07:47:51;94016.53;;;26.43;43.15
71194;BME280;58903;47.210;8.618;2023-05-10T07:50:21;94020.78;;;26.44;43.30
71194;BME280;58903;47.210;8.618;2023-05-10T07:52:47;94021.06;;;26.41;43.75
71194;BME280;58903;47.210;8.618;2023-05-10T07:55:18;94025.34;;;26.42;43.80
71194;BME280;58903;47.210;8.618;2023-05-10T07:57:44;94031.59;;;26.42;43.65
71194;BME280;58903;47.210;8.618;2023-05-10T08:00:31;94027.88;;;26.40;43.51
71194;BME280;58903;47.210;8.618;2023-05-10T08:03:35;94038.16;;;26.39;43.58
71194;BME280;58903;47.210;8.618;2023-05-10T08:06:14;94036.16;;;26.40;43.85
71194;BME280;58903;47.210;8.618;2023-05-10T08:08:43;94035.38;;;26.39;43.76
71194;BME280;58903;47.210;8.618;2023-05-10T08:11:20;94039.13;;;26.42;43.35
71194;BME280;58903;47.210;8.618;2023-05-10T08:14:06;94030.31;;;26.43;43.48
71194;BME280;58903;47.210;8.618;2023-05-10T08:16:32;94034.56;;;26.44;44.26
71194;BME280;58903;47.210;8.618;2023-05-10T08:19:27;94029.06;;;26.44;43.83
71194;BME280;58903;47.210;8.618;2023-05-10T08:22:02;94043.34;;;26.43;43.66
71194;BME280;58903;47.210;8.618;2023-05-10T08:24:30;94028.84;;;26.42;44.53
71194;BME280;58903;47.210;8.618;2023-05-10T08:27:05;94038.06;;;26.45;43.93
71194;BME280;58903;47.210;8.618;2023-05-10T08:29:31;94035.06;;;26.43;43.91
71194;BME280;58903;47.210;8.618;2023-05-10T08:32:30;94038.91;;;26.40;44.39
71194;BME280;58903;47.210;8.618;2023-05-10T08:35:07;94036.34;;;26.42;44.60
71194;BME280;58903;47.210;8.618;2023-05-10T08:37:59;94035.06;;;26.43;44.48
71194;BME280;58903;47.210;8.618;2023-05-10T08:40:38;94030.84;;;26.42;44.88
71194;BME280;58903;47.210;8.618;2023-05-10T08:43:15;94043.34;;;26.43;44.75
71194;BME280;58903;47.210;8.618;2023-05-10T08:46:05;94046.84;;;26.43;44.74
71194;BME280;58903;47.210;8.618;2023-05-10T08:48:47;94053.34;;;26.46;44.11
71194;BME280;58903;47.210;8.618;2023-05-10T08:51:40;94049.09;;;26.45;44.21
71194;BME280;58903;47.210;8.618;2023-05-10T08:54:31;94046.31;;;26.45;44.63
71194;BME280;58903;47.210;8.618;2023-05-10T08:57:06;94046.31;;;26.45;44.42
71194;BME280;58903;47.210;8.618;2023-05-10T08:59:44;94058.31;;;26.47;44.49
71194;BME280;58903;47.210;8.618;2023-05-10T09:08:43;94065.63;;;26.45;44.33
71194;BME280;58903;47.210;8.618;2023-05-10T09:11:19;94064.91;;;26.44;44.34
71194;BME280;58903;47.210;8.618;2023-05-10T09:13:58;94062.88;;;26.45;44.62
71194;BME280;58903;47.210;8.618;2023-05-10T09:16:26;94066.91;;;26.44;44.64
71194;BME280;58903;47.210;8.618;2023-05-10T09:18:53;94064.91;;;26.44;44.31
71194;BME280;58903;47.210;8.618;2023-05-10T09:21:53;94064.38;;;26.46;44.95
71194;BME280;58903;47.210;8.618;2023-05-10T09:24:26;94063.13;;;26.47;44.36
71194;BME280;58903;47.210;8.618;2023-05-10T09:26:57;94057.81;;;26.49;44.04
71194;BME280;58903;47.210;8.618;2023-05-10T09:29:23;94057.28;;;26.50;44.30
71194;BME280;58903;47.210;8.618;2023-05-10T09:31:54;94062.81;;;26.50;44.10
71194;BME280;58903;47.210;8.618;2023-05-10T09:34:39;94057.34;;;26.45;44.45
71194;BME280;58903;47.210;8.618;2023-05-10T09:37:12;94056.09;;;26.46;44.10
71194;BME280;58903;47.210;8.618;2023-05-10T09:39:39;94057.34;;;26.45;44.35
71194;BME280;58903;47.210;8.618;2023-05-10T09:42:22;94056.63;;;26.44;44.75
71194;BME280;58903;47.210;8.618;2023-05-10T09:45:15;94060.34;;;26.47;44.58
71194;BME280;58903;47.210;8.618;2023-05-10T09:47:45;94055.34;;;26.45;44.74
71194;BME280;58903;47.210;8.618;2023-05-10T09:50:30;94061.63;;;26.46;44.22
71194;BME280;58903;47.210;8.618;2023-05-10T09:53:25;94047.81;;;26.46;44.99
71194;BME280;58903;47.210;8.618;2023-05-10T09:56:06;94050.59;;;26.46;44.81
71194;BME280;58903;47.210;8.618;2023-05-10T09:58:36;94053.34;;;26.46;44.38
71194;BME280;58903;47.210;8.618;2023-05-10T10:01:25;94052.59;;;26.45;44.99
71194;BME280;58903;47.210;8.618;2023-05-10T10:04:05;94049.63;;;26.43;44.66
71194;BME280;58903;47.210;8.618;2023-05-10T10:07:09;94051.84;;;26.45;44.88
71194;BME280;58903;47.210;8.618;2023-05-10T10:09:48;94049.84;;;26.45;44.14
71194;BME280;58903;47.210;8.618;2023-05-10T10:12:35;94055.88;;;26.44;44.36
71194;BME280;58903;47.210;8.618;2023-05-10T10:15:21;94055.88;;;26.44;44.83
71194;BME280;58903;47.210;8.618;2023-05-10T10:18:05;94044.84;;;26.44;44.39
71194;BME280;58903;47.210;8.618;2023-05-10T10:20:43;94047.59;;;26.44;44.43
71194;BME280;58903;47.210;8.618;2023-05-10T10:23:19;94054.38;;;26.43;44.91
71194;BME280;58903;47.210;8.618;2023-05-10T10:25:46;94044.84;;;26.44;44.18
71194;BME280;58903;47.210;8.618;2023-05-10T10:28:24;94046.31;;;26.45;44.45
71194;BME280;58903;47.210;8.618;2023-05-10T10:31:31;94053.34;;;26.46;44.84
71194;BME280;58903;47.210;8.618;2023-05-10T10:37:20;94057.34;;;26.45;44.34
71194;BME280;58903;47.210;8.618;2023-05-10T10:52:50;94059.69;;;26.41;44.87
71194;BME280;58903;47.210;8.618;2023-05-10T10:55:46;94049.94;;;26.40;44.40
71194;BME280;58903;47.210;8.618;2023-05-10T10:58:29;94055.22;;;26.38;44.45
71194;BME280;58903;47.210;8.618;2023-05-10T11:04:20;94060.53;;;26.36;44.90
71194;BME280;58903;47.210;8.618;2023-05-10T11:07:16;94068.03;;;26.35;45.28
71194;BME280;58903;47.210;8.618;2023-05-10T11:10:04;94063.50;;;26.38;44.67
71194;BME280;58903;47.210;8.618;2023-05-10T11:12:58;94060.97;;;26.40;44.37
71194;BME280;58903;47.210;8.618;2023-05-10T11:15:34;94053.44;;;26.40;44.58
71194;BME280;58903;47.210;8.618;2023-05-10T11:18:22;94062.97;;;26.39;45.04
71194;BME280;58903;47.210;8.618;2023-05-10T11:26:50;94051.41;;;26.41;44.78
71194;BME280;58903;47.210;8.618;2023-05-10T11:29:18;94050.69;;;26.40;43.92
71194;BME280;58903;47.210;8.618;2023-05-10T11:35:20;94050.97;;;26.37;44.56
71194;BME280;58903;47.210;8.618;2023-05-10T11:37:48;94042.16;;;26.38;44.34
71194;BME280;58903;47.210;8.618;2023-05-10T11:40:15;94044.19;;;26.38;44.70
71194;BME280;58903;47.210;8.618;2023-05-10T11:42:50;94042.69;;;26.37;44.27
71194;BME280;58903;47.210;8.618;2023-05-10T11:45:31;94046.72;;;26.36;43.79
71194;BME280;58903;47.210;8.618;2023-05-10T11:48:16;94055.22;;;26.38;44.19
71194;BME280;58903;47.210;8.618;2023-05-10T11:50:47;94052.47;;;26.38;43.77
71194;BME280;58903;47.210;8.618;2023-05-10T11:53:13;94051.72;;;26.37;44.00
71194;BME280;58903;47.210;8.618;2023-05-10T11:55:53;94048.22;;;26.37;44.33
71194;BME280;58903;47.210;8.618;2023-05-10T11:58:19;94055.22;;;26.38;44.35
71194;BME280;58903;47.210;8.618;2023-05-10T12:01:11;94052.25;;;26.36;44.27
71194;BME280;58903;47.210;8.618;2023-05-10T12:03:40;94048.22;;;26.37;44.07
71194;BME280;58903;47.210;8.618;2023-05-10T12:06:08;94050.22;;;26.36;43.99
71194;BME280;58903;47.210;8.618;2023-05-10T12:08:34;94041.00;;;26.34;43.89
71194;BME280;58903;47.210;8.618;2023-05-10T12:11:08;94045.22;;;26.35;44.09
71194;BME280;58903;47.210;8.618;2023-05-10T12:13:38;94045.22;;;26.35;44.18
71194;BME280;58903;47.210;8.618;2023-05-10T12:16:20;94048.00;;;26.35;43.74
71194;BME280;58903;47.210;8.618;2023-05-10T12:18:52;94034.19;;;26.35;43.93
71194;BME280;58903;47.210;8.618;2023-05-10T12:21:33;94031.00;;;26.31;44.37
71194;BME280;58903;47.210;8.618;2023-05-10T12:24:17;94033.44;;;26.34;43.63
71194;BME280;58903;47.210;8.618;2023-05-10T12:26:45;94039.72;;;26.35;44.14
71194;BME280;58903;47.210;8.618;2023-05-10T12:29:18;94031.44;;;26.35;43.58
71194;BME280;58903;47.210;8.618;2023-05-10T12:31:59;94033.44;;;26.34;43.77
71194;BME280;58903;47.210;8.618;2023-05-10T12:34:35;94041.00;;;26.34;44.32
71194;BME280;58903;47.210;8.618;2023-05-10T12:37:03;94043.75;;;26.34;44.21
71194;BME280;58903;47.210;8.618;2023-05-10T12:39:41;94042.03;;;26.31;44.32
71194;BME280;58903;47.210;8.618;2023-05-10T12:42:14;94050.53;;;26.33;44.07
71194;BME280;58903;47.210;8.618;2023-05-10T12:45:11;94049.06;;;26.32;43.84
71194;BME280;58903;47.210;8.618;2023-05-10T12:48:14;94055.28;;;26.32;43.90
71194;BME280;58903;47.210;8.618;2023-05-10T12:50:43;94059.34;;;26.31;43.51
71194;BME280;58903;47.210;8.618;2023-05-10T12:53:18;94053.38;;;26.27;43.60
71194;BME280;58903;47.210;8.618;2023-05-10T12:55:53;94061.88;;;26.29;43.73
71194;BME280;58903;47.210;8.618;2023-05-10T13:01:37;94064.63;;;26.29;43.52
71194;BME280;58903;47.210;8.618;2023-05-10T13:04:14;94070.88;;;26.30;43.64
71194;BME280;58903;47.210;8.618;2023-05-10T13:06:57;94069.59;;;26.31;44.21
71194;BME280;58903;47.210;8.618;2023-05-10T13:09:25;94070.34;;;26.31;44.20
71194;BME280;58903;47.210;8.618;2023-05-10T13:11:56;94062.84;;;26.32;43.38
71194;BME280;58903;47.210;8.618;2023-05-10T13:14:36;94051.56;;;26.30;43.43
71194;BME280;58903;47.210;8.618;2023-05-10T13:20:28;94050.53;;;26.33;43.54
71194;BME280;58903;47.210;8.618;2023-05-10T13:23:27;94044.47;;;26.34;43.24
71194;BME280;58903;47.210;8.618;2023-05-10T13:29:22;94046.50;;;26.34;43.94
71194;BME280;58903;47.210;8.618;2023-05-10T13:31:48;94045.75;;;26.33;43.48
71194;BME280;58903;47.210;8.618;2023-05-10T13:34:16;94045.00;;;26.33;44.11
71194;BME280;58903;47.210;8.618;2023-05-10T13:36:46;94046.50;;;26.34;43.97
71194;BME280;58903;47.210;8.618;2023-05-10T13:39:13;94027.72;;;26.32;43.63
71194;BME280;58903;47.210;8.618;2023-05-10T13:41:43;94031.22;;;26.33;44.05
71194;BME280;58903;47.210;8.618;2023-05-10T13:44:12;94035.50;;;26.34;44.05
71194;BME280;58903;47.210;8.618;2023-05-10T13:46:49;94039.28;;;26.31;43.47
71194;BME280;58903;47.210;8.618;2023-05-10T13:49:47;94043.53;;;26.32;43.60
71194;BME280;58903;47.210;8.618;2023-05-10T13:52:26;94050.31;;;26.31;43.77
71194;BME280;58903;47.210;8.618;2023-05-10T13:55:01;94063.56;;;26.32;43.39
71194;BME280;58903;47.210;8.618;2023-05-10T13:57:37;94056.78;;;26.33;43.87
71194;BME280;58903;47.210;8.618;2023-05-10T14:00:21;94035.50;;;26.34;43.65
71194;BME280;58903;47.210;8.618;2023-05-10T14:02:48;94022.22;;;26.32;43.48
71194;BME280;58903;47.210;8.618;2023-05-10T14:05:35;94009.28;;;26.27;44.10
71194;BME280;58903;47.210;8.618;2023-05-10T14:08:30;94009.78;;;26.26;43.66
71194;BME280;58903;47.210;8.618;2023-05-10T14:11:31;94009.78;;;26.26;44.03
71194;BME280;58903;47.210;8.618;2023-05-10T14:14:07;94006.28;;;26.25;43.92
71194;BME280;58903;47.210;8.618;2023-05-10T14:17:10;94005.22;;;26.28;43.33
71194;BME280;58903;47.210;8.618;2023-05-10T14:23:21;94001.66;;;26.33;43.83
71194;BME280;58903;47.210;8.618;2023-05-10T14:26:08;93991.59;;;26.36;43.50
71194;BME280;58903;47.210;8.618;2023-05-10T14:28:35;93986.06;;;26.36;43.91
71194;BME280;58903;47.210;8.618;2023-05-10T14:31:03;93993.59;;;26.35;44.35
71194;BME280;58903;47.210;8.618;2023-05-10T14:33:48;93990.53;;;26.39;43.88
71194;BME280;58903;47.210;8.618;2023-05-10T14:36:30;93986.50;;;26.40;43.88
71194;BME280;58903;47.210;8.618;2023-05-10T14:39:08;93985.97;;;26.41;44.04
71194;BME280;58903;47.210;8.618;2023-05-10T14:41:45;93994.78;;;26.40;44.40
71194;BME280;58903;47.210;8.618;2023-05-10T14:44:15;93998.78;;;26.39;44.18
71194;BME280;58903;47.210;8.618;2023-05-10T14:46:53;93987.75;;;26.39;44.13
71194;BME280;58903;47.210;8.618;2023-05-10T14:49:22;93982.25;;;26.39;44.07
71194;BME280;58903;47.210;8.618;2023-05-10T14:51:52;93989.25;;;26.40;44.10
71194;BME280;58903;47.210;8.618;2023-05-10T14:54:27;93987.97;;;26.41;44.09
71194;BME280;58903;47.210;8.618;2023-05-10T14:57:29;93982.69;;;26.43;44.46
71194;BME280;58903;47.210;8.618;2023-05-10T15:00:04;93983.97;;;26.42;43.92
71194;BME280;58903;47.210;8.618;2023-05-10T15:02:48;93984.50;;;26.40;44.34
71194;BME280;58903;47.210;8.618;2023-05-10T15:05:53;93990.31;;;26.37;44.64
71194;BME280;58903;47.210;8.618;2023-05-10T15:08:35;93983.75;;;26.40;44.06
71194;BME280;58903;47.210;8.618;2023-05-10T15:11:11;93985.66;;;26.45;43.37
71194;BME280;58903;47.210;8.618;2023-05-10T15:14:07;93990.75;;;26.41;43.40
71194;BME280;58903;47.210;8.618;2023-05-10T15:16:51;93991.06;;;26.37;43.40
71194;BME280;58903;47.210;8.618;2023-05-10T15:19:20;93986.28;;;26.38;43.90
71194;BME280;58903;47.210;8.618;2023-05-10T15:21:48;93992.53;;;26.38;43.54
71194;BME280;58903;47.210;8.618;2023-05-10T15:24:41;94002.09;;;26.37;43.71
71194;BME280;58903;47.210;8.618;2023-05-10T15:27:07;93999.88;;;26.36;43.76
71194;BME280;58903;47.210;8.618;2023-05-10T15:30:04;94021.59;;;26.39;43.65